createdAt,value
2022-09-05T00:02:36.508Z,15.80
2022-09-05T00:05:26.396Z,15.80
2022-09-05T00:08:01.335Z,15.80
2022-09-05T00:10:53.471Z,15.80
2022-09-05T00:13:31.946Z,15.80
2022-09-05T00:16:31.510Z,15.80
2022-09-05T00:24:22.914Z,15.80
2022-09-05T00:24:35.591Z,15.80
2022-09-05T00:25:31.249Z,15.80
2022-09-05T00:28:25.453Z,15.70
2022-09-05T00:31:55.890Z,15.70
2022-09-05T00:34:13.681Z,15.70
2022-09-05T00:36:45.228Z,15.70
2022-09-05T00:39:19.809Z,15.70
2022-09-05T00:41:49.942Z,15.70
2022-09-05T00:44:19.074Z,15.60
2022-09-05T00:46:54.553Z,15.60
2022-09-05T00:49:25.482Z,15.60
2022-09-05T00:51:57.893Z,15.60
2022-09-05T00:54:54.825Z,15.50
2022-09-05T00:57:47.922Z,15.50
2022-09-05T01:00:18.564Z,15.50
2022-09-05T01:03:19.305Z,15.50
2022-09-05T01:05:59.614Z,15.50
2022-09-05T01:08:47.234Z,15.40
2022-09-05T01:11:20.867Z,15.40
2022-09-05T01:13:53.357Z,15.40
2022-09-05T01:16:25.264Z,15.40
2022-09-05T01:19:05.529Z,15.40
2022-09-05T01:21:54.924Z,15.40
2022-09-05T01:24:55.166Z,15.30
2022-09-05T01:28:34.304Z,15.30
2022-09-05T01:30:40.796Z,15.30
2022-09-05T01:33:19.070Z,15.30
2022-09-05T01:36:04.360Z,15.30
2022-09-05T01:38:38.364Z,15.30
2022-09-05T01:41:18.691Z,15.20
2022-09-05T01:44:23.061Z,15.20
2022-09-05T01:47:00.021Z,15.20
2022-09-05T01:49:47.839Z,15.20
2022-09-05T01:52:26.292Z,15.20
2022-09-05T01:55:10.092Z,15.20
2022-09-05T01:57:45.140Z,15.10
2022-09-05T02:00:15.900Z,15.10
2022-09-05T02:02:53.049Z,15.10
2022-09-05T02:05:56.835Z,15.10
2022-09-05T02:09:01.964Z,15.10
2022-09-05T02:11:45.944Z,15.00
2022-09-05T02:14:33.715Z,15.00
2022-09-05T02:17:23.487Z,15.00
2022-09-05T02:20:13.946Z,14.90
2022-09-05T02:22:58.724Z,14.90
2022-09-05T02:26:00.451Z,14.90
2022-09-05T02:28:21.604Z,14.80
2022-09-05T02:31:19.225Z,14.80
2022-09-05T02:33:48.472Z,14.80
2022-09-05T02:36:23.071Z,14.80
2022-09-05T02:40:42.775Z,14.80
2022-09-05T02:45:07.951Z,14.80
2022-09-05T02:45:19.503Z,14.80
2022-09-05T02:47:32.881Z,14.80
2022-09-05T02:55:42.998Z,14.70
2022-09-05T02:57:27.516Z,14.70
2022-09-05T02:57:41.753Z,14.70
2022-09-05T02:59:17.119Z,14.70
2022-09-05T03:02:03.415Z,14.60
2022-09-05T03:04:53.254Z,14.60
2022-09-05T03:07:51.844Z,14.60
2022-09-05T03:10:53.412Z,14.60
2022-09-05T03:14:00.536Z,14.50
2022-09-05T03:17:22.435Z,14.50
2022-09-05T03:20:51.613Z,14.50
2022-09-05T03:24:02.195Z,14.50
2022-09-05T03:27:02.950Z,14.50
2022-09-05T03:30:01.862Z,14.40
2022-09-05T03:33:08.095Z,14.40
2022-09-05T03:36:37.888Z,14.40
2022-09-05T03:39:47.643Z,14.40
2022-09-05T03:42:51.913Z,14.40
2022-09-05T03:45:53.722Z,14.40
2022-09-05T03:48:54.101Z,14.30
2022-09-05T03:57:13.604Z,14.30
2022-09-05T03:57:13.961Z,14.30
2022-09-05T03:58:56.079Z,14.30
2022-09-05T04:02:40.353Z,14.20
2022-09-05T04:08:09.120Z,14.20
2022-09-05T04:08:18.374Z,14.20
2022-09-05T04:10:22.383Z,14.30
2022-09-05T04:12:53.327Z,14.20
2022-09-05T04:15:31.758Z,14.20
2022-09-05T04:18:03.711Z,14.10
2022-09-05T04:20:40.633Z,14.10
2022-09-05T04:23:23.897Z,14.10
2022-09-05T04:26:12.193Z,14.10
2022-09-05T04:28:53.534Z,14.10
2022-09-05T04:31:30.569Z,14.10
2022-09-05T04:34:09.848Z,14.10
2022-09-05T04:36:39.404Z,14.10
2022-09-05T04:39:24.373Z,14.10
2022-09-05T04:41:55.389Z,14.10
2022-09-05T04:44:27.319Z,14.10
2022-09-05T04:46:56.762Z,14.10
2022-09-05T04:49:26.959Z,14.10
2022-09-05T04:52:50.349Z,14.10
2022-09-05T04:55:19.719Z,14.10
2022-09-05T04:57:51.908Z,14.20
2022-09-05T05:06:00.330Z,14.20
2022-09-05T05:06:18.911Z,14.20
2022-09-05T05:06:38.094Z,14.20
2022-09-05T05:09:19.728Z,14.20
2022-09-05T05:16:20.653Z,14.30
2022-09-05T05:18:06.875Z,14.40
2022-09-05T05:18:08.798Z,14.30
2022-09-05T05:20:41.905Z,14.40
2022-09-05T05:23:14.313Z,14.50
2022-09-05T05:25:48.820Z,14.50
2022-09-05T05:28:25.055Z,14.50
2022-09-05T05:31:01.452Z,14.60
2022-09-05T05:33:33.033Z,14.60
2022-09-05T05:36:03.003Z,14.70
2022-09-05T05:38:39.537Z,14.70
2022-09-05T05:41:21.426Z,14.80
2022-09-05T05:43:49.694Z,14.80
2022-09-05T05:46:29.745Z,14.90
2022-09-05T05:49:24.724Z,14.90
2022-09-05T05:52:05.445Z,15.00
2022-09-05T05:54:38.368Z,15.10
2022-09-05T05:57:42.012Z,15.10
2022-09-05T06:00:27.481Z,15.10
2022-09-05T06:03:38.975Z,15.20
2022-09-05T06:06:32.363Z,15.10
2022-09-05T06:14:51.529Z,15.10
2022-09-05T06:15:07.081Z,15.20
2022-09-05T06:16:45.429Z,15.20
2022-09-05T06:20:47.454Z,15.20
2022-09-05T06:23:41.876Z,15.30
2022-09-05T06:26:51.123Z,15.30
2022-09-05T06:29:34.582Z,15.40
2022-09-05T06:32:17.591Z,15.50
2022-09-05T06:35:17.301Z,15.50
2022-09-05T06:37:48.011Z,15.60
2022-09-05T06:40:20.541Z,15.80
2022-09-05T06:43:05.952Z,15.80
2022-09-05T06:45:58.463Z,16.00
2022-09-05T06:48:44.729Z,16.10
2022-09-05T06:52:27.803Z,16.20
2022-09-05T06:55:37.454Z,16.30
2022-09-05T06:59:07.750Z,16.50
2022-09-05T07:02:00.337Z,16.60
2022-09-05T07:05:23.926Z,16.80
2022-09-05T07:07:27.628Z,16.90
2022-09-05T07:10:00.469Z,17.00
2022-09-05T07:12:30.648Z,17.10
2022-09-05T07:15:13.770Z,17.20
2022-09-05T07:18:09.577Z,17.30
2022-09-05T07:21:17.136Z,17.40
2022-09-05T07:24:05.971Z,17.50
2022-09-05T07:26:52.113Z,17.60
2022-09-05T07:29:28.158Z,17.70
2022-09-05T07:31:56.983Z,17.80
2022-09-05T07:34:28.034Z,17.80
2022-09-05T07:37:15.058Z,18.00
2022-09-05T07:39:49.456Z,18.10
2022-09-05T07:42:21.449Z,18.20
2022-09-05T07:44:54.183Z,18.40
2022-09-05T07:47:24.396Z,18.60
2022-09-05T07:50:30.885Z,18.70
2022-09-05T07:56:54.861Z,18.80
2022-09-05T07:56:59.247Z,18.90
2022-09-05T07:58:24.600Z,18.90
2022-09-05T08:00:53.329Z,19.00
2022-09-05T08:03:27.574Z,19.00
2022-09-05T08:05:58.089Z,19.00
2022-09-05T08:08:29.853Z,19.10
2022-09-05T08:11:23.938Z,19.10
2022-09-05T08:14:21.917Z,19.20
2022-09-05T08:16:48.024Z,19.20
2022-09-05T08:19:41.881Z,19.30
2022-09-05T08:22:14.389Z,19.40
2022-09-05T08:24:45.046Z,19.50
2022-09-05T08:27:18.062Z,19.60
2022-09-05T08:29:48.330Z,19.60
2022-09-05T08:32:35.150Z,19.70
2022-09-05T08:35:06.306Z,19.80
2022-09-05T08:37:34.535Z,19.80
2022-09-05T08:40:10.241Z,19.90
2022-09-05T08:43:30.882Z,20.00
2022-09-05T08:46:44.407Z,20.10
2022-09-05T08:48:55.429Z,20.30
2022-09-05T08:51:35.804Z,20.40
2022-09-05T08:54:20.362Z,20.60
2022-09-05T08:56:55.767Z,20.70
2022-09-05T08:59:37.506Z,20.80
2022-09-05T09:03:03.984Z,20.90
2022-09-05T09:06:13.598Z,21.00
2022-09-05T09:08:55.395Z,21.00
2022-09-05T09:11:31.140Z,21.10
2022-09-05T09:14:36.461Z,21.20
2022-09-05T09:17:19.605Z,21.30
2022-09-05T09:19:51.338Z,21.40
2022-09-05T09:22:29.153Z,21.50
2022-09-05T09:25:14.180Z,21.60
2022-09-05T09:28:48.034Z,21.70
2022-09-05T09:30:53.636Z,21.70
2022-09-05T09:33:34.578Z,21.70
2022-09-05T09:36:07.990Z,21.70
2022-09-05T09:38:41.895Z,21.70
2022-09-05T09:41:39.014Z,21.90
2022-09-05T09:45:27.620Z,22.00
2022-09-05T09:48:37.222Z,22.10
2022-09-05T09:51:30.380Z,22.40
2022-09-05T09:54:18.753Z,22.50
2022-09-05T09:57:04.907Z,22.60
2022-09-05T09:59:56.697Z,22.70
2022-09-05T10:04:19.019Z,22.80
2022-09-05T10:10:45.324Z,22.90
2022-09-05T10:11:00.446Z,22.90
2022-09-05T10:13:19.270Z,23.10
2022-09-05T10:16:35.117Z,23.20
2022-09-05T10:23:01.083Z,23.40
2022-09-05T10:25:50.839Z,23.40
2022-09-05T10:28:25.593Z,23.50
2022-09-05T10:33:06.626Z,23.50
2022-09-05T10:35:17.244Z,23.60
2022-09-05T10:36:39.143Z,23.60
2022-09-05T10:39:18.605Z,23.70
2022-09-05T10:41:53.146Z,23.70
2022-09-05T10:44:29.706Z,23.80
2022-09-05T10:47:06.323Z,23.80
2022-09-05T10:49:39.137Z,24.00
2022-09-05T10:52:18.723Z,24.00
2022-09-05T10:55:14.166Z,24.10
2022-09-05T10:57:58.471Z,24.20
2022-09-05T11:02:21.508Z,24.30
2022-09-05T11:03:46.723Z,24.30
2022-09-05T11:06:20.871Z,24.30
2022-09-05T11:09:00.719Z,24.20
2022-09-05T11:11:34.788Z,24.30
2022-09-05T11:14:05.280Z,24.40
2022-09-05T11:16:37.745Z,24.50
2022-09-05T11:19:06.969Z,24.60
2022-09-05T11:22:12.117Z,24.60
2022-09-05T11:24:48.846Z,24.80
2022-09-05T11:27:26.862Z,24.90
2022-09-05T11:29:57.549Z,25.00
2022-09-05T11:39:46.767Z,25.00
2022-09-05T11:39:53.883Z,25.00
2022-09-05T11:40:05.987Z,25.00
2022-09-05T11:42:22.422Z,24.90
2022-09-05T11:45:25.132Z,24.90
2022-09-05T11:48:22.710Z,24.90
2022-09-05T11:51:05.986Z,24.90
2022-09-05T11:54:01.699Z,24.70
2022-09-05T11:57:06.444Z,24.70
2022-09-05T12:00:31.310Z,24.70
2022-09-05T12:03:57.545Z,24.80
2022-09-05T12:07:03.174Z,24.90
2022-09-05T12:10:04.127Z,25.00
2022-09-05T12:12:41.264Z,25.20
2022-09-05T12:15:26.681Z,25.40
2022-09-05T12:18:19.333Z,25.60
2022-09-05T12:21:01.672Z,25.70
2022-09-05T12:24:08.284Z,25.60
2022-09-05T12:27:41.953Z,25.30
2022-09-05T12:29:29.053Z,25.30
2022-09-05T12:34:31.864Z,25.30
2022-09-05T12:36:06.119Z,25.30
2022-09-05T12:40:43.590Z,25.40
2022-09-05T12:41:34.653Z,25.40
2022-09-05T12:44:13.846Z,25.40
2022-09-05T12:46:24.301Z,25.30
2022-09-05T12:48:57.285Z,25.20
2022-09-05T12:51:46.353Z,25.30
2022-09-05T12:54:33.798Z,25.30
2022-09-05T13:02:05.224Z,25.50
2022-09-05T13:02:56.793Z,25.70
2022-09-05T13:03:12.853Z,25.90
2022-09-05T13:05:53.174Z,25.90
2022-09-05T13:08:22.272Z,25.80
2022-09-05T13:14:47.089Z,25.80
2022-09-05T13:14:57.190Z,25.70
2022-09-05T13:16:35.866Z,25.70
2022-09-05T13:19:07.696Z,25.70
2022-09-05T13:21:40.967Z,25.70
2022-09-05T13:24:12.223Z,25.60
2022-09-05T13:26:43.211Z,25.70
2022-09-05T13:29:16.141Z,25.80
2022-09-05T13:37:54.609Z,25.90
2022-09-05T13:38:17.894Z,26.10
2022-09-05T13:40:58.211Z,26.30
2022-09-05T13:43:27.681Z,26.30
2022-09-05T13:46:07.946Z,26.40
2022-09-05T13:51:37.576Z,26.40
2022-09-05T13:54:36.299Z,26.30
2022-09-05T13:57:31.785Z,26.40
2022-09-05T14:00:41.389Z,26.40
2022-09-05T14:03:46.143Z,26.40
2022-09-05T14:07:43.790Z,26.50
2022-09-05T14:10:36.738Z,26.50
2022-09-05T14:13:05.846Z,26.70
2022-09-05T14:15:40.778Z,26.70
2022-09-05T14:18:22.181Z,26.70
2022-09-05T14:21:14.043Z,26.80
2022-09-05T14:23:53.663Z,26.80
2022-09-05T14:26:28.764Z,26.70
2022-09-05T14:29:03.464Z,26.70
2022-09-05T14:37:37.484Z,26.70
2022-09-05T14:37:50.097Z,26.70
2022-09-05T14:38:09.425Z,26.50
2022-09-05T14:42:03.597Z,26.40
2022-09-05T14:44:57.920Z,26.30
2022-09-05T14:48:24.622Z,26.20
2022-09-05T14:51:11.743Z,26.10
2022-09-05T14:53:59.772Z,26.00
2022-09-05T14:57:23.340Z,25.80
2022-09-05T15:02:48.252Z,25.70
2022-09-05T15:03:00.357Z,25.70
2022-09-05T15:05:20.321Z,25.60
2022-09-05T15:07:49.641Z,25.60
2022-09-05T15:12:16.177Z,25.70
2022-09-05T15:13:25.785Z,25.70
2022-09-05T15:16:02.959Z,25.70
2022-09-05T15:18:33.684Z,25.80
2022-09-05T15:21:33.691Z,25.80
2022-09-05T15:24:14.904Z,25.70
2022-09-05T15:26:53.914Z,25.80
2022-09-05T15:29:24.672Z,25.80
2022-09-05T15:32:08.953Z,25.80
2022-09-05T15:34:40.093Z,25.70
2022-09-05T15:37:30.976Z,25.60
2022-09-05T15:40:07.734Z,25.60
2022-09-05T15:42:51.813Z,25.40
2022-09-05T15:45:25.853Z,25.20
2022-09-05T15:48:16.143Z,25.10
2022-09-05T15:50:50.175Z,24.90
2022-09-05T15:53:24.093Z,24.70
2022-09-05T15:55:59.897Z,24.50
2022-09-05T15:58:52.466Z,24.50
2022-09-05T16:01:32.538Z,24.40
2022-09-05T16:09:15.241Z,24.30
2022-09-05T16:10:29.952Z,24.20
2022-09-05T16:10:33.928Z,24.10
2022-09-05T16:12:42.078Z,24.10
2022-09-05T16:16:56.385Z,24.10
2022-09-05T16:23:13.183Z,24.00
2022-09-05T16:23:33.323Z,24.00
2022-09-05T16:23:47.857Z,24.00
2022-09-05T16:26:25.022Z,24.00
2022-09-05T16:28:58.058Z,24.00
2022-09-05T16:31:33.434Z,23.90
2022-09-05T16:34:02.752Z,23.90
2022-09-05T16:36:57.897Z,23.90
2022-09-05T16:39:38.671Z,23.80
2022-09-05T16:42:13.456Z,23.80
2022-09-05T16:44:46.093Z,23.70
2022-09-05T16:47:24.339Z,23.60
2022-09-05T16:50:01.754Z,23.50
2022-09-05T16:52:37.066Z,23.40
2022-09-05T16:55:12.242Z,23.30
2022-09-05T16:57:55.367Z,23.20
2022-09-05T17:00:26.028Z,23.10
2022-09-05T17:02:58.674Z,23.00
2022-09-05T17:05:31.099Z,22.90
2022-09-05T17:08:13.549Z,22.80
2022-09-05T17:10:46.621Z,22.70
2022-09-05T17:13:42.065Z,22.60
2022-09-05T17:16:13.698Z,22.50
2022-09-05T17:18:41.993Z,22.40
2022-09-05T17:21:12.362Z,22.30
2022-09-05T17:29:33.327Z,22.10
2022-09-05T17:29:36.267Z,22.20
2022-09-05T17:32:48.137Z,21.90
2022-09-05T17:35:26.688Z,21.80
2022-09-05T17:38:37.721Z,21.70
2022-09-05T17:41:50.823Z,21.60
2022-09-05T17:44:22.551Z,21.40
2022-09-05T17:47:06.646Z,21.30
2022-09-05T17:49:43.130Z,21.20
2022-09-05T17:52:29.394Z,21.20
2022-09-05T17:54:57.926Z,21.10
2022-09-05T17:57:41.361Z,21.00
2022-09-05T18:01:04.421Z,20.90
2022-09-05T18:04:17.056Z,20.90
2022-09-05T18:07:00.015Z,20.80
2022-09-05T18:16:10.572Z,20.50
2022-09-05T18:19:27.911Z,20.50
2022-09-05T18:21:48.428Z,20.40
2022-09-05T18:24:33.223Z,20.30
2022-09-05T18:30:06.000Z,20.20
2022-09-05T18:32:46.541Z,20.10
2022-09-05T18:35:36.674Z,20.10
2022-09-05T18:38:26.073Z,20.00
2022-09-05T18:41:22.037Z,20.00
2022-09-05T18:44:13.285Z,19.90
2022-09-05T18:46:51.386Z,19.90
2022-09-05T18:50:24.377Z,19.80
2022-09-05T18:52:23.587Z,19.80
2022-09-05T18:56:10.848Z,19.70
2022-09-05T18:57:47.861Z,19.70
2022-09-05T19:00:23.396Z,19.70
2022-09-05T19:02:59.007Z,19.60
2022-09-05T19:05:38.995Z,19.60
2022-09-05T19:08:26.711Z,19.60
2022-09-05T19:10:58.813Z,19.60
2022-09-05T19:13:32.083Z,19.50
2022-09-05T19:16:42.768Z,19.50
2022-09-05T19:19:11.766Z,19.50
2022-09-05T19:22:32.004Z,19.50
2022-09-05T19:24:44.952Z,19.40
2022-09-05T19:32:36.097Z,19.40
2022-09-05T19:36:50.318Z,19.30
2022-09-05T19:36:55.466Z,19.30
2022-09-05T19:36:57.861Z,19.40
2022-09-05T19:39:24.877Z,19.20
2022-09-05T19:46:27.530Z,19.10
2022-09-05T19:47:43.623Z,19.10
2022-09-05T19:47:48.431Z,19.00
2022-09-05T19:50:09.304Z,19.00
2022-09-05T19:52:39.896Z,18.90
2022-09-05T19:55:21.861Z,18.90
2022-09-05T19:58:01.241Z,18.90
2022-09-05T20:00:41.699Z,18.80
2022-09-05T20:03:10.008Z,18.80
2022-09-05T20:05:40.695Z,18.70
2022-09-05T20:08:13.347Z,18.70
2022-09-05T20:10:41.658Z,18.70
2022-09-05T20:13:23.747Z,18.60
2022-09-05T20:15:52.440Z,18.60
2022-09-05T20:18:23.108Z,18.60
2022-09-05T20:20:54.292Z,18.50
2022-09-05T20:23:25.219Z,18.50
2022-09-05T20:25:54.507Z,18.50
2022-09-05T20:28:24.711Z,18.40
2022-09-05T20:30:55.125Z,18.40
2022-09-05T20:33:26.972Z,18.30
2022-09-05T20:43:07.736Z,18.30
2022-09-05T20:43:20.080Z,18.30
2022-09-05T20:43:22.466Z,18.20
2022-09-05T20:44:36.472Z,18.20
2022-09-05T20:48:23.961Z,18.20
2022-09-05T20:54:06.289Z,18.20
2022-09-05T20:54:24.766Z,18.10
2022-09-05T20:55:42.133Z,18.10
2022-09-05T20:58:12.525Z,18.10
2022-09-05T21:01:19.709Z,18.00
2022-09-05T21:03:36.752Z,18.00
2022-09-05T21:06:22.593Z,18.00
2022-09-05T21:08:52.599Z,17.90
2022-09-05T21:11:31.896Z,17.90
2022-09-05T21:14:03.421Z,17.90
2022-09-05T21:16:33.383Z,17.90
2022-09-05T21:19:01.661Z,17.80
2022-09-05T21:21:31.514Z,17.80
2022-09-05T21:24:15.939Z,17.80
2022-09-05T21:26:51.866Z,17.80
2022-09-05T21:29:27.453Z,17.80
2022-09-05T21:32:01.630Z,17.70
2022-09-05T21:34:32.849Z,17.70
2022-09-05T21:37:07.438Z,17.70
2022-09-05T21:39:40.004Z,17.70
2022-09-05T21:42:39.133Z,17.70
2022-09-05T21:47:40.314Z,17.60
2022-09-05T21:47:53.693Z,17.60
2022-09-05T21:50:31.013Z,17.50
2022-09-05T21:53:14.595Z,17.50
2022-09-05T21:59:18.703Z,17.50
2022-09-05T21:59:19.802Z,17.40
2022-09-05T22:01:44.644Z,17.40
2022-09-05T22:04:17.563Z,17.30
2022-09-05T22:06:48.763Z,17.30
2022-09-05T22:09:17.663Z,17.30
2022-09-05T22:11:50.301Z,17.30
2022-09-05T22:14:20.736Z,17.30
2022-09-05T22:16:50.536Z,17.20
2022-09-05T22:19:22.940Z,17.20
2022-09-05T22:21:52.235Z,17.20
2022-09-05T22:24:20.482Z,17.20
2022-09-05T22:27:11.861Z,17.10
2022-09-05T22:29:43.070Z,17.10
2022-09-05T22:32:15.834Z,17.10
2022-09-05T22:34:44.057Z,17.00
2022-09-05T22:37:16.910Z,17.00
2022-09-05T22:39:45.572Z,17.00
2022-09-05T22:42:13.838Z,17.00
2022-09-05T22:44:43.541Z,17.00
2022-09-05T22:47:12.060Z,16.90
2022-09-05T22:49:40.760Z,16.90
2022-09-05T22:52:09.684Z,16.90
2022-09-05T22:54:37.885Z,16.90
2022-09-05T22:57:06.570Z,16.90
2022-09-05T22:59:34.751Z,16.90
2022-09-05T23:02:04.284Z,16.80
2022-09-05T23:04:32.574Z,16.80
2022-09-05T23:07:03.193Z,16.80
2022-09-05T23:09:31.378Z,16.80
2022-09-05T23:11:59.520Z,16.70
2022-09-05T23:14:27.696Z,16.70
2022-09-05T23:16:56.141Z,16.70
2022-09-05T23:19:25.659Z,16.70
2022-09-05T23:21:53.877Z,16.60
2022-09-05T23:24:22.069Z,16.60
2022-09-05T23:26:50.245Z,16.60
2022-09-05T23:29:18.472Z,16.50
2022-09-05T23:31:46.677Z,16.50
2022-09-05T23:34:14.861Z,16.50
2022-09-05T23:36:44.348Z,16.50
2022-09-05T23:39:12.491Z,16.40
2022-09-05T23:41:40.697Z,16.40
2022-09-05T23:44:08.865Z,16.40
2022-09-05T23:46:37.905Z,16.40
2022-09-05T23:49:06.098Z,16.40
2022-09-05T23:51:34.261Z,16.30
2022-09-05T23:54:03.757Z,16.30
2022-09-05T23:56:31.902Z,16.30
2022-09-05T23:59:00.097Z,16.20
